createdAt,value
2022-12-22T00:00:07.860Z,89.90
2022-12-22T00:01:28.278Z,89.90
2022-12-22T00:02:49.247Z,89.90
2022-12-22T00:04:10.594Z,89.90
2022-12-22T00:05:31.047Z,89.90
2022-12-22T00:06:51.801Z,89.90
2022-12-22T00:08:12.677Z,89.90
2022-12-22T00:09:33.461Z,89.90
2022-12-22T00:10:54.857Z,89.90
2022-12-22T00:12:16.016Z,89.90
2022-12-22T00:13:37.105Z,89.90
2022-12-22T00:14:58.040Z,89.90
2022-12-22T00:16:20.217Z,89.90
2022-12-22T00:17:40.849Z,89.90
2022-12-22T00:19:01.648Z,89.90
2022-12-22T00:20:22.305Z,89.90
2022-12-22T00:21:43.015Z,89.90
2022-12-22T00:23:04.332Z,89.90
2022-12-22T00:24:24.707Z,89.90
2022-12-22T00:25:45.870Z,89.90
2022-12-22T00:27:07.972Z,89.90
2022-12-22T00:28:28.723Z,89.90
2022-12-22T00:29:49.507Z,89.90
2022-12-22T00:31:10.312Z,89.90
2022-12-22T00:32:36.765Z,89.90
2022-12-22T00:33:58.284Z,89.90
2022-12-22T00:35:22.069Z,89.90
2022-12-22T00:36:43.792Z,89.90
2022-12-22T00:38:13.268Z,89.90
2022-12-22T00:39:33.755Z,89.90
2022-12-22T00:40:54.514Z,89.90
2022-12-22T00:42:15.459Z,89.90
2022-12-22T00:43:36.384Z,89.90
2022-12-22T00:44:57.083Z,89.90
2022-12-22T00:46:18.450Z,89.90
2022-12-22T00:47:41.153Z,89.90
2022-12-22T00:49:02.045Z,89.90
2022-12-22T00:50:28.137Z,89.90
2022-12-22T00:51:49.144Z,89.90
2022-12-22T00:53:10.465Z,89.90
2022-12-22T00:54:31.249Z,89.90
2022-12-22T00:55:51.772Z,89.90
2022-12-22T00:57:16.903Z,89.90
2022-12-22T00:58:37.475Z,89.90
2022-12-22T00:59:58.573Z,89.90
2022-12-22T01:01:19.146Z,89.90
2022-12-22T01:02:41.546Z,89.90
2022-12-22T01:04:02.235Z,89.90
2022-12-22T01:05:23.004Z,89.90
2022-12-22T01:06:44.095Z,89.90
2022-12-22T01:08:05.401Z,89.90
2022-12-22T01:09:26.183Z,89.90
2022-12-22T01:10:46.978Z,89.90
2022-12-22T01:12:11.680Z,89.90
2022-12-22T01:13:32.603Z,89.90
2022-12-22T01:14:53.441Z,89.90
2022-12-22T01:16:14.214Z,89.90
2022-12-22T01:17:34.963Z,89.90
2022-12-22T01:18:57.137Z,89.90
2022-12-22T01:20:17.679Z,89.90
2022-12-22T01:21:38.354Z,89.90
2022-12-22T01:22:59.017Z,89.90
2022-12-22T01:24:19.643Z,89.90
2022-12-22T01:25:40.324Z,89.90
2022-12-22T01:27:00.959Z,89.90
2022-12-22T01:28:21.469Z,89.90
2022-12-22T01:29:42.335Z,89.90
2022-12-22T01:31:14.781Z,89.90
2022-12-22T01:32:35.223Z,89.90
2022-12-22T01:33:57.346Z,89.90
2022-12-22T01:35:19.998Z,89.90
2022-12-22T01:36:40.961Z,89.90
2022-12-22T01:38:01.500Z,89.90
2022-12-22T01:39:22.348Z,89.90
2022-12-22T01:40:43.140Z,89.90
2022-12-22T01:42:03.986Z,89.90
2022-12-22T01:43:27.579Z,89.90
2022-12-22T01:44:48.114Z,89.90
2022-12-22T01:46:22.371Z,89.90
2022-12-22T01:47:42.891Z,89.90
2022-12-22T01:49:08.420Z,89.90
2022-12-22T01:50:32.598Z,89.90
2022-12-22T01:51:53.389Z,89.90
2022-12-22T01:53:20.056Z,89.90
2022-12-22T01:54:41.425Z,89.90
2022-12-22T01:56:02.183Z,89.90
2022-12-22T01:57:22.838Z,89.90
2022-12-22T01:58:46.506Z,89.90
2022-12-22T02:00:08.403Z,89.90
2022-12-22T02:01:29.959Z,89.90
2022-12-22T02:02:51.074Z,89.90
2022-12-22T02:04:14.195Z,89.90
2022-12-22T02:05:40.634Z,89.90
2022-12-22T02:07:11.708Z,89.90
2022-12-22T02:08:38.114Z,89.90
2022-12-22T02:10:09.931Z,89.90
2022-12-22T02:11:34.495Z,89.90
2022-12-22T02:13:02.587Z,89.90
2022-12-22T02:14:30.809Z,89.90
2022-12-22T02:15:57.499Z,89.90
2022-12-22T02:17:24.291Z,89.90
2022-12-22T02:18:49.677Z,89.90
2022-12-22T02:20:30.678Z,89.90
2022-12-22T02:21:59.021Z,89.90
2022-12-22T02:23:34.606Z,89.90
2022-12-22T02:25:01.549Z,89.90
2022-12-22T02:26:27.563Z,89.90
2022-12-22T02:27:49.936Z,89.90
2022-12-22T02:29:11.180Z,89.90
2022-12-22T02:30:31.770Z,89.90
2022-12-22T02:31:52.797Z,89.90
2022-12-22T02:33:13.168Z,89.90
2022-12-22T02:34:34.013Z,89.90
2022-12-22T02:36:00.670Z,89.90
2022-12-22T02:37:28.143Z,89.90
2022-12-22T02:38:55.239Z,89.90
2022-12-22T02:40:18.363Z,89.90
2022-12-22T02:41:45.543Z,89.90
2022-12-22T02:43:11.135Z,89.90
2022-12-22T02:44:39.257Z,89.90
2022-12-22T02:46:04.951Z,89.90
2022-12-22T02:47:31.965Z,89.90
2022-12-22T02:48:57.382Z,89.90
2022-12-22T02:50:23.137Z,89.90
2022-12-22T02:51:47.315Z,89.90
2022-12-22T02:53:08.651Z,89.90
2022-12-22T02:54:29.862Z,89.90
2022-12-22T02:55:50.340Z,89.90
2022-12-22T02:57:15.680Z,89.90
2022-12-22T02:58:36.211Z,89.90
2022-12-22T02:59:56.849Z,89.90
2022-12-22T03:01:17.963Z,89.90
2022-12-22T03:02:38.663Z,89.90
2022-12-22T03:03:59.401Z,89.90
2022-12-22T03:05:20.281Z,89.90
2022-12-22T03:06:40.658Z,89.90
2022-12-22T03:08:06.207Z,89.90
2022-12-22T03:09:29.012Z,89.90
2022-12-22T03:10:49.730Z,89.90
2022-12-22T03:12:12.008Z,89.90
2022-12-22T03:13:32.645Z,89.90
2022-12-22T03:14:53.511Z,89.90
2022-12-22T03:16:14.216Z,89.90
2022-12-22T03:17:34.854Z,89.90
2022-12-22T03:18:55.622Z,89.90
2022-12-22T03:20:16.715Z,89.90
2022-12-22T03:21:37.470Z,89.90
2022-12-22T03:23:03.623Z,89.90
2022-12-22T03:24:24.335Z,89.90
2022-12-22T03:25:47.759Z,89.90
2022-12-22T03:27:08.573Z,89.90
2022-12-22T03:28:30.657Z,89.90
2022-12-22T03:29:51.181Z,89.90
2022-12-22T03:31:12.517Z,89.90
2022-12-22T03:32:33.113Z,89.90
2022-12-22T03:33:53.888Z,89.90
2022-12-22T03:35:14.886Z,89.90
2022-12-22T03:36:35.201Z,89.90
2022-12-22T03:37:56.010Z,89.90
2022-12-22T03:39:17.084Z,89.90
2022-12-22T03:40:37.850Z,89.90
2022-12-22T03:41:58.508Z,89.90
2022-12-22T03:43:19.390Z,89.90
2022-12-22T03:44:41.042Z,89.90
2022-12-22T03:46:02.426Z,89.90
2022-12-22T03:47:22.882Z,89.90
2022-12-22T03:48:44.305Z,89.90
2022-12-22T03:50:05.832Z,89.90
2022-12-22T03:51:26.249Z,89.90
2022-12-22T03:52:46.741Z,89.90
2022-12-22T03:54:08.419Z,89.90
2022-12-22T03:55:28.899Z,89.90
2022-12-22T03:56:49.903Z,89.90
2022-12-22T03:58:10.349Z,89.90
2022-12-22T03:59:31.123Z,89.90
2022-12-22T04:00:53.016Z,89.90
2022-12-22T04:02:13.871Z,89.90
2022-12-22T04:03:34.493Z,89.90
2022-12-22T04:04:55.282Z,89.90
2022-12-22T04:06:16.394Z,89.90
2022-12-22T04:07:36.985Z,89.90
2022-12-22T04:08:57.693Z,89.90
2022-12-22T04:10:18.554Z,89.90
2022-12-22T04:11:39.319Z,89.90
2022-12-22T04:13:00.249Z,89.90
2022-12-22T04:14:20.583Z,89.90
2022-12-22T04:15:41.233Z,89.90
2022-12-22T04:17:04.517Z,89.90
2022-12-22T04:18:24.977Z,89.90
2022-12-22T04:19:45.695Z,89.90
2022-12-22T04:21:06.281Z,89.90
2022-12-22T04:22:27.005Z,89.90
2022-12-22T04:23:47.961Z,89.90
2022-12-22T04:25:09.429Z,89.90
2022-12-22T04:26:31.161Z,89.90
2022-12-22T04:27:51.689Z,89.90
2022-12-22T04:29:12.369Z,89.90
2022-12-22T04:30:32.821Z,89.90
2022-12-22T04:31:53.722Z,89.90
2022-12-22T04:33:15.888Z,89.90
2022-12-22T04:34:36.500Z,89.90
2022-12-22T04:35:57.211Z,89.90
2022-12-22T04:37:18.127Z,89.90
2022-12-22T04:38:38.707Z,89.90
2022-12-22T04:39:59.243Z,89.90
2022-12-22T04:41:19.960Z,89.90
2022-12-22T04:42:40.658Z,89.90
2022-12-22T04:44:01.396Z,89.90
2022-12-22T04:45:21.934Z,89.90
2022-12-22T04:46:42.508Z,89.90
2022-12-22T04:48:03.218Z,89.90
2022-12-22T04:49:25.240Z,89.90
2022-12-22T04:50:45.850Z,89.90
2022-12-22T04:52:06.548Z,89.90
2022-12-22T04:53:28.346Z,89.90
2022-12-22T04:54:49.056Z,89.90
2022-12-22T04:56:10.231Z,89.90
2022-12-22T04:57:34.261Z,89.90
2022-12-22T04:58:57.534Z,89.90
2022-12-22T05:00:19.349Z,89.90
2022-12-22T05:01:40.144Z,89.90
2022-12-22T05:03:00.776Z,89.90
2022-12-22T05:04:23.844Z,89.90
2022-12-22T05:05:46.515Z,89.90
2022-12-22T05:07:07.280Z,89.90
2022-12-22T05:08:27.986Z,89.90
2022-12-22T05:09:48.610Z,89.90
2022-12-22T05:11:09.499Z,89.90
2022-12-22T05:12:30.185Z,89.90
2022-12-22T05:13:51.042Z,89.90
2022-12-22T05:15:12.026Z,89.90
2022-12-22T05:16:32.862Z,89.90
2022-12-22T05:17:53.546Z,89.90
2022-12-22T05:19:14.183Z,89.90
2022-12-22T05:20:36.057Z,89.90
2022-12-22T05:21:57.875Z,89.90
2022-12-22T05:23:18.210Z,89.90
2022-12-22T05:24:39.347Z,89.90
2022-12-22T05:25:59.989Z,89.90
2022-12-22T05:27:20.569Z,89.90
2022-12-22T05:28:42.281Z,89.90
2022-12-22T05:30:03.363Z,89.90
2022-12-22T05:31:25.192Z,89.90
2022-12-22T05:32:46.372Z,89.90
2022-12-22T05:34:07.034Z,89.90
2022-12-22T05:35:27.576Z,89.90
2022-12-22T05:36:48.583Z,89.90
2022-12-22T05:38:10.790Z,89.90
2022-12-22T05:39:31.471Z,89.90
2022-12-22T05:40:53.138Z,89.90
2022-12-22T05:42:16.069Z,89.90
2022-12-22T05:43:37.081Z,89.90
2022-12-22T05:44:57.906Z,89.90
2022-12-22T05:46:18.431Z,89.90
2022-12-22T05:47:39.637Z,89.90
2022-12-22T05:49:00.526Z,89.90
2022-12-22T05:50:22.684Z,89.90
2022-12-22T05:51:43.053Z,89.90
2022-12-22T05:53:03.851Z,89.90
2022-12-22T05:54:26.020Z,89.90
2022-12-22T05:55:46.503Z,89.90
2022-12-22T05:57:07.175Z,89.90
2022-12-22T05:58:28.103Z,89.90
2022-12-22T05:59:48.880Z,89.90
2022-12-22T06:01:09.675Z,89.90
2022-12-22T06:02:30.531Z,89.90
2022-12-22T06:03:56.155Z,89.90
2022-12-22T06:05:20.783Z,89.90
2022-12-22T06:06:41.253Z,89.90
2022-12-22T06:08:02.171Z,89.90
2022-12-22T06:09:23.172Z,89.90
2022-12-22T06:10:45.331Z,89.90
2022-12-22T06:12:06.375Z,89.90
2022-12-22T06:13:26.947Z,89.90
2022-12-22T06:14:47.759Z,89.90
2022-12-22T06:16:08.658Z,89.90
2022-12-22T06:17:29.380Z,89.90
2022-12-22T06:18:50.184Z,89.90
2022-12-22T06:20:11.796Z,89.90
2022-12-22T06:21:32.531Z,89.90
2022-12-22T06:22:53.163Z,89.90
2022-12-22T06:24:13.929Z,89.90
2022-12-22T06:25:34.558Z,89.90
2022-12-22T06:26:56.522Z,89.90
2022-12-22T06:28:17.404Z,89.90
2022-12-22T06:29:38.212Z,89.90
2022-12-22T06:30:59.005Z,89.90
2022-12-22T06:32:19.841Z,89.90
2022-12-22T06:33:41.397Z,89.90
2022-12-22T06:35:01.923Z,89.90
2022-12-22T06:36:22.957Z,89.90
2022-12-22T06:37:43.491Z,89.90
2022-12-22T06:39:04.496Z,89.90
2022-12-22T06:40:24.831Z,89.90
2022-12-22T06:41:45.360Z,89.90
2022-12-22T06:43:09.763Z,89.90
2022-12-22T06:44:31.134Z,89.90
2022-12-22T06:45:51.594Z,89.90
2022-12-22T06:47:12.512Z,89.90
2022-12-22T06:48:33.058Z,89.90
2022-12-22T06:49:53.808Z,89.90
2022-12-22T06:51:14.656Z,89.90
2022-12-22T06:52:35.666Z,89.90
2022-12-22T06:53:56.275Z,89.90
2022-12-22T06:55:16.767Z,89.90
2022-12-22T06:56:37.600Z,89.90
2022-12-22T06:57:58.770Z,89.90
2022-12-22T06:59:20.810Z,89.90
2022-12-22T07:00:41.890Z,89.90
2022-12-22T07:02:02.587Z,89.90
2022-12-22T07:03:23.554Z,89.90
2022-12-22T07:04:45.623Z,89.90
2022-12-22T07:06:07.386Z,89.90
2022-12-22T07:07:27.947Z,89.90
2022-12-22T07:08:49.106Z,89.90
2022-12-22T07:10:10.183Z,89.90
2022-12-22T07:11:30.760Z,89.90
2022-12-22T07:12:51.585Z,89.90
2022-12-22T07:14:12.346Z,89.90
2022-12-22T07:15:34.641Z,89.90
2022-12-22T07:16:55.112Z,89.90
2022-12-22T07:18:15.935Z,89.90
2022-12-22T07:19:37.077Z,89.90
2022-12-22T07:20:58.095Z,89.90
2022-12-22T07:22:22.909Z,89.90
2022-12-22T07:23:48.383Z,89.90
2022-12-22T07:25:09.641Z,89.90
2022-12-22T07:26:30.689Z,89.90
2022-12-22T07:27:50.916Z,89.90
2022-12-22T07:29:11.545Z,89.90
2022-12-22T07:30:33.857Z,89.90
2022-12-22T07:31:54.827Z,89.90
2022-12-22T07:33:15.585Z,89.90
2022-12-22T07:34:35.989Z,89.90
2022-12-22T07:36:05.449Z,89.90
2022-12-22T07:37:26.119Z,89.90
2022-12-22T07:38:48.961Z,89.90
2022-12-22T07:40:10.674Z,89.90
2022-12-22T07:41:31.096Z,89.90
2022-12-22T07:42:56.161Z,89.90
2022-12-22T07:44:17.213Z,89.90
2022-12-22T07:45:39.611Z,89.90
2022-12-22T07:47:00.260Z,89.90
2022-12-22T07:48:21.132Z,89.90
2022-12-22T07:49:41.833Z,89.90
2022-12-22T07:51:04.285Z,89.90
2022-12-22T07:52:24.979Z,89.90
2022-12-22T07:53:45.685Z,89.90
2022-12-22T07:55:08.104Z,89.90
2022-12-22T07:56:32.056Z,89.90
2022-12-22T07:57:53.739Z,89.90
2022-12-22T07:59:14.556Z,89.90
2022-12-22T08:00:35.200Z,89.90
2022-12-22T08:01:57.418Z,89.90
2022-12-22T08:03:17.954Z,89.90
2022-12-22T08:04:38.997Z,89.90
2022-12-22T08:05:59.469Z,89.90
2022-12-22T08:07:20.187Z,89.90
2022-12-22T08:08:40.719Z,89.90
2022-12-22T08:10:01.293Z,89.90
2022-12-22T08:11:21.810Z,89.90
2022-12-22T08:12:42.745Z,89.90
2022-12-22T08:14:03.690Z,89.90
2022-12-22T08:15:24.374Z,89.90
2022-12-22T08:16:44.845Z,89.90
2022-12-22T08:18:07.365Z,89.90
2022-12-22T08:19:27.848Z,89.90
2022-12-22T08:20:49.617Z,89.90
2022-12-22T08:22:10.120Z,89.90
2022-12-22T08:23:31.696Z,89.90
2022-12-22T08:24:52.187Z,89.90
2022-12-22T08:26:16.250Z,89.90
2022-12-22T08:27:41.441Z,89.90
2022-12-22T08:29:04.999Z,89.90
2022-12-22T08:30:25.754Z,89.90
2022-12-22T08:31:46.943Z,89.90
2022-12-22T08:33:09.182Z,89.90
2022-12-22T08:34:30.019Z,89.90
2022-12-22T08:35:50.393Z,89.90
2022-12-22T08:37:13.396Z,89.90
2022-12-22T08:38:34.876Z,89.90
2022-12-22T08:39:58.676Z,89.90
2022-12-22T08:41:19.383Z,89.90
2022-12-22T08:42:40.468Z,89.90
2022-12-22T08:44:01.280Z,89.90
2022-12-22T08:45:22.126Z,89.90
2022-12-22T08:46:42.891Z,89.90
2022-12-22T08:48:03.597Z,89.90
2022-12-22T08:49:25.998Z,89.90
2022-12-22T08:50:46.962Z,89.90
2022-12-22T08:52:10.545Z,89.90
2022-12-22T08:54:03.858Z,89.90
2022-12-22T08:55:15.510Z,89.90
2022-12-22T08:56:36.288Z,89.90
2022-12-22T08:57:56.548Z,89.90
2022-12-22T08:59:17.320Z,89.90
2022-12-22T09:00:38.178Z,89.90
2022-12-22T09:01:59.189Z,89.90
2022-12-22T09:03:20.326Z,89.90
2022-12-22T09:04:42.220Z,89.90
2022-12-22T09:06:02.910Z,89.90
2022-12-22T09:07:23.582Z,89.90
2022-12-22T09:08:44.306Z,89.90
2022-12-22T09:10:05.720Z,89.90
2022-12-22T09:11:26.489Z,89.90
2022-12-22T09:12:46.870Z,89.90
2022-12-22T09:14:09.250Z,89.90
2022-12-22T09:15:30.049Z,89.90
2022-12-22T09:16:50.924Z,89.90
2022-12-22T09:18:11.528Z,89.90
2022-12-22T09:19:32.160Z,89.90
2022-12-22T09:20:56.267Z,89.90
2022-12-22T09:22:21.740Z,89.90
2022-12-22T09:23:46.184Z,89.90
2022-12-22T09:25:07.765Z,89.90
2022-12-22T09:26:29.185Z,89.90
2022-12-22T09:27:49.661Z,89.90
2022-12-22T09:29:10.621Z,89.90
2022-12-22T09:30:30.911Z,89.90
2022-12-22T09:31:51.576Z,89.90
2022-12-22T09:33:12.257Z,89.90
2022-12-22T09:34:33.073Z,89.90
2022-12-22T09:35:53.816Z,89.90
2022-12-22T09:37:16.093Z,89.90
2022-12-22T09:38:37.084Z,89.90
2022-12-22T09:39:57.964Z,89.90
2022-12-22T09:41:20.877Z,89.90
2022-12-22T09:42:41.523Z,89.80
2022-12-22T09:44:03.538Z,89.60
2022-12-22T09:45:24.691Z,89.90
2022-12-22T09:46:45.323Z,89.90
2022-12-22T09:48:08.692Z,89.80
2022-12-22T09:49:29.051Z,89.70
2022-12-22T09:50:49.849Z,89.90
2022-12-22T09:52:24.031Z,89.90
2022-12-22T09:53:46.778Z,89.40
2022-12-22T09:55:14.426Z,89.00
2022-12-22T09:56:36.340Z,89.00
2022-12-22T09:57:57.216Z,89.50
2022-12-22T09:59:19.553Z,88.80
2022-12-22T10:00:40.035Z,88.30
2022-12-22T10:02:06.032Z,88.70
2022-12-22T10:03:33.430Z,88.30
2022-12-22T10:05:06.948Z,88.20
2022-12-22T10:06:34.167Z,88.50
2022-12-22T10:08:01.010Z,88.10
2022-12-22T10:11:05.488Z,88.00
2022-12-22T10:12:26.409Z,88.50
2022-12-22T10:13:47.055Z,88.60
2022-12-22T10:15:11.729Z,89.10
2022-12-22T10:16:34.730Z,88.90
2022-12-22T10:18:09.646Z,88.80
2022-12-22T10:19:30.230Z,88.90
2022-12-22T10:21:09.147Z,89.20
2022-12-22T10:22:31.441Z,89.20
2022-12-22T10:23:53.470Z,89.10
2022-12-22T10:26:00.573Z,89.10
2022-12-22T10:27:16.097Z,89.20
2022-12-22T10:28:39.049Z,89.10
2022-12-22T10:30:20.436Z,89.20
2022-12-22T10:31:58.115Z,89.40
2022-12-22T10:33:19.197Z,88.90
2022-12-22T10:34:59.046Z,89.00
2022-12-22T10:36:22.475Z,88.90
2022-12-22T10:37:42.979Z,88.80
2022-12-22T10:39:07.533Z,88.40
2022-12-22T10:40:28.464Z,88.40
2022-12-22T10:41:50.487Z,88.40
2022-12-22T10:43:18.645Z,88.30
2022-12-22T10:44:39.841Z,88.30
2022-12-22T10:46:01.379Z,87.90
2022-12-22T10:47:23.155Z,87.80
2022-12-22T10:48:43.602Z,88.20
2022-12-22T10:50:04.890Z,88.00
2022-12-22T10:51:25.466Z,87.40
2022-12-22T10:52:51.500Z,87.60
2022-12-22T10:54:29.504Z,87.40
2022-12-22T10:56:05.023Z,87.80
2022-12-22T10:57:31.383Z,87.80
2022-12-22T10:58:54.133Z,87.90
2022-12-22T11:00:26.583Z,87.70
2022-12-22T11:01:48.977Z,87.20
2022-12-22T11:03:11.713Z,87.40
2022-12-22T11:04:32.085Z,87.50
2022-12-22T11:05:52.824Z,87.50
2022-12-22T11:07:13.807Z,87.50
2022-12-22T11:08:34.496Z,88.00
2022-12-22T11:09:56.537Z,88.50
2022-12-22T11:11:27.687Z,89.30
2022-12-22T11:13:11.257Z,89.50
2022-12-22T11:14:39.625Z,88.30
2022-12-22T11:16:03.427Z,88.30
2022-12-22T11:17:30.127Z,87.80
2022-12-22T11:19:01.453Z,87.70
2022-12-22T11:20:34.979Z,88.80
2022-12-22T11:22:00.413Z,89.70
2022-12-22T11:23:27.069Z,89.30
2022-12-22T11:24:55.418Z,89.30
2022-12-22T11:26:23.368Z,89.40
2022-12-22T11:27:50.134Z,89.70
2022-12-22T11:29:20.135Z,89.90
2022-12-22T11:30:47.212Z,89.90
2022-12-22T11:32:19.554Z,89.90
2022-12-22T11:33:47.922Z,89.90
2022-12-22T11:35:13.138Z,89.90
2022-12-22T11:36:40.565Z,89.90
2022-12-22T11:38:09.443Z,89.90
2022-12-22T11:39:37.945Z,89.90
2022-12-22T11:41:04.598Z,89.90
2022-12-22T11:42:40.029Z,89.90
2022-12-22T11:44:11.032Z,89.90
2022-12-22T11:45:43.402Z,89.90
2022-12-22T11:47:12.475Z,89.90
2022-12-22T11:48:51.054Z,89.90
2022-12-22T11:50:58.389Z,89.90
2022-12-22T11:52:20.246Z,89.90
2022-12-22T11:54:04.069Z,89.90
2022-12-22T11:55:32.712Z,89.90
2022-12-22T11:56:59.551Z,89.90
2022-12-22T11:58:31.719Z,89.90
2022-12-22T12:00:00.757Z,89.90
2022-12-22T12:01:34.681Z,89.90
2022-12-22T12:03:18.999Z,89.90
2022-12-22T12:04:56.022Z,89.90
2022-12-22T12:06:41.904Z,89.90
2022-12-22T12:08:09.387Z,89.90
2022-12-22T12:09:38.472Z,89.90
2022-12-22T12:11:07.453Z,89.90
2022-12-22T12:12:34.012Z,89.90
2022-12-22T12:14:02.633Z,89.90
2022-12-22T12:15:30.339Z,89.90
2022-12-22T12:16:55.812Z,89.90
2022-12-22T12:18:30.179Z,89.90
2022-12-22T12:20:13.137Z,89.90
2022-12-22T12:21:40.249Z,89.90
2022-12-22T12:23:13.080Z,89.90
2022-12-22T12:24:46.199Z,89.90
2022-12-22T12:26:10.437Z,89.90
2022-12-22T12:27:45.838Z,89.90
2022-12-22T12:29:13.827Z,89.90
2022-12-22T12:30:38.896Z,89.90
2022-12-22T12:32:05.489Z,89.90
2022-12-22T12:33:36.307Z,89.90
2022-12-22T12:35:01.778Z,89.60
2022-12-22T12:36:24.619Z,89.20
2022-12-22T12:37:48.511Z,89.40
2022-12-22T12:39:13.359Z,89.70
2022-12-22T12:40:39.952Z,89.70
2022-12-22T12:42:05.538Z,89.90
2022-12-22T12:43:26.433Z,89.30
2022-12-22T12:44:48.440Z,88.60
2022-12-22T12:46:43.784Z,88.40
2022-12-22T12:48:40.792Z,88.50
2022-12-22T12:50:03.518Z,88.80
2022-12-22T12:51:46.540Z,89.00
2022-12-22T12:53:09.035Z,88.50
2022-12-22T12:54:39.868Z,88.30
2022-12-22T12:56:03.101Z,88.90
2022-12-22T12:57:28.446Z,88.50
2022-12-22T12:58:53.734Z,88.40
2022-12-22T13:00:48.771Z,88.00
2022-12-22T13:02:35.632Z,87.90
2022-12-22T13:04:05.171Z,87.90
2022-12-22T13:05:31.934Z,87.60
2022-12-22T13:06:53.248Z,88.20
2022-12-22T13:08:19.117Z,88.20
2022-12-22T13:10:17.268Z,88.00
2022-12-22T13:12:11.095Z,88.10
2022-12-22T13:13:45.173Z,87.90
2022-12-22T13:15:28.283Z,88.20
2022-12-22T13:16:50.267Z,87.90
2022-12-22T13:18:41.817Z,87.60
2022-12-22T13:20:10.952Z,88.00
2022-12-22T13:21:55.294Z,88.40
2022-12-22T13:23:16.184Z,88.40
2022-12-22T13:24:49.000Z,88.50
2022-12-22T13:26:10.853Z,88.40
2022-12-22T13:27:31.964Z,88.30
2022-12-22T13:28:56.240Z,88.70
2022-12-22T13:30:18.674Z,88.90
2022-12-22T13:31:42.251Z,88.50
2022-12-22T13:33:11.310Z,88.60
2022-12-22T13:35:04.373Z,88.70
2022-12-22T13:36:28.127Z,89.00
2022-12-22T13:37:50.085Z,88.70
2022-12-22T13:39:13.278Z,88.80
2022-12-22T13:40:41.141Z,88.80
2022-12-22T13:42:01.564Z,88.70
2022-12-22T13:43:22.255Z,88.90
2022-12-22T13:44:42.831Z,89.50
2022-12-22T13:46:03.503Z,88.70
2022-12-22T13:47:23.985Z,88.70
2022-12-22T13:48:47.331Z,88.50
2022-12-22T13:50:16.258Z,88.30
2022-12-22T13:51:37.763Z,88.60
2022-12-22T13:52:58.781Z,88.50
2022-12-22T13:54:24.091Z,88.50
2022-12-22T13:55:46.778Z,88.60
2022-12-22T13:57:16.994Z,88.50
2022-12-22T13:58:39.351Z,89.00
2022-12-22T13:59:59.980Z,88.50
2022-12-22T14:01:20.767Z,87.90
2022-12-22T14:02:41.330Z,88.20
2022-12-22T14:04:04.457Z,88.50
2022-12-22T14:05:30.769Z,88.50
2022-12-22T14:06:51.693Z,89.20
2022-12-22T14:08:12.567Z,89.00
2022-12-22T14:09:33.191Z,89.10
2022-12-22T14:10:54.378Z,89.50
2022-12-22T14:12:16.896Z,89.90
2022-12-22T14:13:37.993Z,89.60
2022-12-22T14:15:00.126Z,89.60
2022-12-22T14:16:20.493Z,89.90
2022-12-22T14:17:46.180Z,89.90
2022-12-22T14:19:13.696Z,89.90
2022-12-22T14:20:40.273Z,89.90
2022-12-22T14:22:03.949Z,89.90
2022-12-22T14:23:28.089Z,89.90
2022-12-22T14:24:50.579Z,89.90
2022-12-22T14:26:16.090Z,89.90
2022-12-22T14:27:38.653Z,89.90
2022-12-22T14:28:59.518Z,89.90
2022-12-22T14:30:21.444Z,89.90
2022-12-22T14:31:52.561Z,89.90
2022-12-22T14:33:20.098Z,89.90
2022-12-22T14:34:53.153Z,89.90
2022-12-22T14:36:15.987Z,89.90
2022-12-22T14:37:36.609Z,89.90
2022-12-22T14:39:05.399Z,89.90
2022-12-22T14:40:31.536Z,89.90
2022-12-22T14:41:53.292Z,89.90
2022-12-22T14:43:26.418Z,89.90
2022-12-22T14:44:47.837Z,89.90
2022-12-22T14:46:08.546Z,89.90
2022-12-22T14:47:29.232Z,89.90
2022-12-22T14:48:50.048Z,89.90
2022-12-22T14:50:17.257Z,89.90
2022-12-22T14:51:37.921Z,89.90
2022-12-22T14:52:59.965Z,89.90
2022-12-22T14:54:22.042Z,89.90
2022-12-22T14:55:42.904Z,89.90
2022-12-22T14:57:15.826Z,89.90
2022-12-22T14:58:39.796Z,89.90
2022-12-22T15:00:03.039Z,89.90
2022-12-22T15:01:25.690Z,89.90
2022-12-22T15:02:51.584Z,89.90
2022-12-22T15:04:17.544Z,89.90
2022-12-22T15:05:39.526Z,89.90
2022-12-22T15:07:37.255Z,89.90
2022-12-22T15:09:08.881Z,89.90
2022-12-22T15:10:35.872Z,89.90
2022-12-22T15:12:03.279Z,89.90
2022-12-22T15:13:24.737Z,89.90
2022-12-22T15:14:45.177Z,89.90
2022-12-22T15:16:05.808Z,89.90
2022-12-22T15:17:26.185Z,89.90
2022-12-22T15:18:48.061Z,89.90
2022-12-22T15:20:15.243Z,89.90
2022-12-22T15:21:37.100Z,89.90
2022-12-22T15:22:57.782Z,89.90
2022-12-22T15:24:18.928Z,89.90
2022-12-22T15:25:39.207Z,89.90
2022-12-22T15:26:59.746Z,89.90
2022-12-22T15:28:20.087Z,89.90
2022-12-22T15:29:40.726Z,89.90
2022-12-22T15:31:03.095Z,89.90
2022-12-22T15:32:24.395Z,89.90
2022-12-22T15:33:45.321Z,89.90
2022-12-22T15:35:15.711Z,89.90
2022-12-22T15:36:37.725Z,89.90
2022-12-22T15:37:58.636Z,89.90
2022-12-22T15:39:20.924Z,89.90
2022-12-22T15:40:42.198Z,89.90
2022-12-22T15:42:02.589Z,89.90
2022-12-22T15:43:55.800Z,89.90
2022-12-22T15:45:03.830Z,89.90
2022-12-22T15:46:24.941Z,89.90
2022-12-22T15:47:47.756Z,89.90
2022-12-22T15:49:12.851Z,89.90
2022-12-22T15:50:39.061Z,89.90
2022-12-22T15:52:02.835Z,89.90
2022-12-22T15:53:23.914Z,89.90
2022-12-22T15:54:44.650Z,89.90
2022-12-22T15:56:05.891Z,89.90
2022-12-22T15:57:26.552Z,89.90
2022-12-22T15:58:47.232Z,89.90
2022-12-22T16:00:10.673Z,89.90
2022-12-22T16:01:31.132Z,89.90
2022-12-22T16:02:52.005Z,89.90
2022-12-22T16:04:12.834Z,89.90
2022-12-22T16:05:33.869Z,89.90
2022-12-22T16:06:54.511Z,89.90
2022-12-22T16:08:18.622Z,89.90
2022-12-22T16:09:41.114Z,89.90
2022-12-22T16:11:01.739Z,89.90
2022-12-22T16:12:22.565Z,89.90
2022-12-22T16:13:43.794Z,89.90
2022-12-22T16:15:04.864Z,89.90
2022-12-22T16:16:25.284Z,89.90
2022-12-22T16:17:45.946Z,89.90
2022-12-22T16:19:08.006Z,89.90
2022-12-22T16:20:32.972Z,89.90
2022-12-22T16:21:56.076Z,89.90
2022-12-22T16:23:21.186Z,89.90
2022-12-22T16:24:43.746Z,89.90
2022-12-22T16:26:04.689Z,89.90
2022-12-22T16:27:25.048Z,89.90
2022-12-22T16:28:46.156Z,89.90
2022-12-22T16:30:07.717Z,89.90
2022-12-22T16:31:28.603Z,89.90
2022-12-22T16:32:49.006Z,89.90
2022-12-22T16:34:10.047Z,89.90
2022-12-22T16:35:30.991Z,89.90
2022-12-22T16:36:51.947Z,89.90
2022-12-22T16:38:18.237Z,89.90
2022-12-22T16:39:40.801Z,89.90
2022-12-22T16:41:01.296Z,89.90
2022-12-22T16:44:05.714Z,89.90
2022-12-22T16:45:30.515Z,89.90
2022-12-22T16:46:51.382Z,89.90
2022-12-22T16:48:13.879Z,89.90
2022-12-22T16:49:34.574Z,89.90
2022-12-22T16:50:55.152Z,89.90
2022-12-22T16:52:18.300Z,89.90
2022-12-22T16:53:38.928Z,89.90
2022-12-22T16:55:00.848Z,89.90
2022-12-22T16:56:23.014Z,89.90
2022-12-22T16:57:43.919Z,89.90
2022-12-22T16:59:04.404Z,89.90
2022-12-22T17:00:27.738Z,89.90
2022-12-22T17:01:51.903Z,89.90
2022-12-22T17:03:15.285Z,89.90
2022-12-22T17:04:36.121Z,89.90
2022-12-22T17:05:58.862Z,89.90
2022-12-22T17:07:19.869Z,89.90
2022-12-22T17:08:43.673Z,89.90
2022-12-22T17:10:06.478Z,89.90
2022-12-22T17:11:26.995Z,89.90
2022-12-22T17:12:49.737Z,89.90
2022-12-22T17:14:18.317Z,89.90
2022-12-22T17:15:38.903Z,89.90
2022-12-22T17:16:59.796Z,89.90
2022-12-22T17:18:22.266Z,89.90
2022-12-22T17:19:42.673Z,89.90
2022-12-22T17:21:03.316Z,89.90
2022-12-22T17:22:26.587Z,89.90
2022-12-22T17:23:49.907Z,89.90
2022-12-22T17:25:16.574Z,89.90
2022-12-22T17:26:37.216Z,89.90
2022-12-22T17:27:59.162Z,89.90
2022-12-22T17:29:22.196Z,89.90
2022-12-22T17:30:42.541Z,89.90
2022-12-22T17:32:03.526Z,89.90
2022-12-22T17:33:24.107Z,89.90
2022-12-22T17:34:46.983Z,89.90
2022-12-22T17:36:18.301Z,89.90
2022-12-22T17:37:39.168Z,89.90
2022-12-22T17:39:00.345Z,89.90
2022-12-22T17:40:22.718Z,89.90
2022-12-22T17:41:43.609Z,89.90
2022-12-22T17:43:03.917Z,89.90
2022-12-22T17:44:25.891Z,89.90
2022-12-22T17:45:47.270Z,89.90
2022-12-22T17:47:09.199Z,89.90
2022-12-22T17:48:29.623Z,89.90
2022-12-22T17:49:50.352Z,89.90
2022-12-22T17:51:19.000Z,89.90
2022-12-22T17:52:40.131Z,89.90
2022-12-22T17:54:00.635Z,89.90
2022-12-22T17:56:01.247Z,89.90
2022-12-22T17:57:12.863Z,89.90
2022-12-22T17:58:33.589Z,89.90
2022-12-22T17:59:54.520Z,89.90